sensor_id;sensor_type;location;lat;lon;timestamp;P1;durP1;ratioP1;P2;durP2;ratioP2
15408;SDS011;7803;48.130;13.788;2022-11-25T00:01:37;2.03;;;1.55;;
15408;SDS011;7803;48.130;13.788;2022-11-25T00:04:40;2.40;;;1.70;;
15408;SDS011;7803;48.130;13.788;2022-11-25T00:07:42;2.50;;;1.60;;
15408;SDS011;7803;48.130;13.788;2022-11-25T00:10:44;1.60;;;1.40;;
15408;SDS011;7803;48.130;13.788;2022-11-25T00:13:46;3.13;;;1.95;;
15408;SDS011;7803;48.130;13.788;2022-11-25T00:16:49;1.75;;;1.48;;
15408;SDS011;7803;48.130;13.788;2022-11-25T00:19:52;1.88;;;1.63;;
15408;SDS011;7803;48.130;13.788;2022-11-25T00:22:54;1.67;;;1.35;;
15408;SDS011;7803;48.130;13.788;2022-11-25T00:25:56;1.65;;;1.55;;
15408;SDS011;7803;48.130;13.788;2022-11-25T00:28:59;1.40;;;1.30;;
15408;SDS011;7803;48.130;13.788;2022-11-25T00:32:02;1.50;;;1.40;;
15408;SDS011;7803;48.130;13.788;2022-11-25T00:35:06;2.45;;;1.67;;
15408;SDS011;7803;48.130;13.788;2022-11-25T00:38:08;2.35;;;1.80;;
15408;SDS011;7803;48.130;13.788;2022-11-25T00:41:10;2.05;;;1.40;;
15408;SDS011;7803;48.130;13.788;2022-11-25T00:44:32;2.05;;;1.58;;
15408;SDS011;7803;48.130;13.788;2022-11-25T00:47:38;1.70;;;1.40;;
15408;SDS011;7803;48.130;13.788;2022-11-25T00:50:42;2.40;;;1.60;;
15408;SDS011;7803;48.130;13.788;2022-11-25T00:53:45;1.88;;;1.40;;
15408;SDS011;7803;48.130;13.788;2022-11-25T00:56:47;1.98;;;1.40;;
15408;SDS011;7803;48.130;13.788;2022-11-25T00:59:49;1.73;;;1.40;;
15408;SDS011;7803;48.130;13.788;2022-11-25T01:02:51;1.80;;;1.50;;
15408;SDS011;7803;48.130;13.788;2022-11-25T01:05:54;1.83;;;1.50;;
15408;SDS011;7803;48.130;13.788;2022-11-25T01:09:01;2.33;;;1.45;;
15408;SDS011;7803;48.130;13.788;2022-11-25T01:12:04;1.48;;;1.33;;
15408;SDS011;7803;48.130;13.788;2022-11-25T01:15:07;1.55;;;1.40;;
15408;SDS011;7803;48.130;13.788;2022-11-25T01:18:09;1.65;;;1.40;;
15408;SDS011;7803;48.130;13.788;2022-11-25T01:21:14;1.55;;;1.30;;
15408;SDS011;7803;48.130;13.788;2022-11-25T01:24:17;1.63;;;1.30;;
15408;SDS011;7803;48.130;13.788;2022-11-25T01:27:19;1.30;;;1.20;;
15408;SDS011;7803;48.130;13.788;2022-11-25T01:30:21;1.83;;;1.48;;
15408;SDS011;7803;48.130;13.788;2022-11-25T01:33:23;2.15;;;1.50;;
15408;SDS011;7803;48.130;13.788;2022-11-25T01:36:27;1.83;;;1.40;;
15408;SDS011;7803;48.130;13.788;2022-11-25T01:39:29;1.55;;;1.45;;
15408;SDS011;7803;48.130;13.788;2022-11-25T01:42:31;1.55;;;1.40;;
15408;SDS011;7803;48.130;13.788;2022-11-25T01:45:35;1.63;;;1.38;;
15408;SDS011;7803;48.130;13.788;2022-11-25T01:48:38;1.38;;;1.27;;
15408;SDS011;7803;48.130;13.788;2022-11-25T01:51:45;1.55;;;1.25;;
15408;SDS011;7803;48.130;13.788;2022-11-25T01:54:52;1.48;;;1.33;;
15408;SDS011;7803;48.130;13.788;2022-11-25T01:57:58;2.38;;;1.58;;
15408;SDS011;7803;48.130;13.788;2022-11-25T02:01:05;2.45;;;1.60;;
15408;SDS011;7803;48.130;13.788;2022-11-25T02:04:08;1.30;;;1.20;;
15408;SDS011;7803;48.130;13.788;2022-11-25T02:07:16;1.98;;;1.38;;
15408;SDS011;7803;48.130;13.788;2022-11-25T02:10:24;1.70;;;1.42;;
15408;SDS011;7803;48.130;13.788;2022-11-25T02:13:30;1.73;;;1.33;;
15408;SDS011;7803;48.130;13.788;2022-11-25T02:16:33;1.50;;;1.40;;
15408;SDS011;7803;48.130;13.788;2022-11-25T02:19:38;1.65;;;1.27;;
15408;SDS011;7803;48.130;13.788;2022-11-25T02:22:54;1.38;;;1.27;;
15408;SDS011;7803;48.130;13.788;2022-11-25T02:26:02;1.75;;;1.27;;
15408;SDS011;7803;48.130;13.788;2022-11-25T02:29:05;1.85;;;1.45;;
15408;SDS011;7803;48.130;13.788;2022-11-25T02:32:07;1.83;;;1.50;;
15408;SDS011;7803;48.130;13.788;2022-11-25T02:35:23;1.98;;;1.30;;
15408;SDS011;7803;48.130;13.788;2022-11-25T02:38:34;1.55;;;1.27;;
15408;SDS011;7803;48.130;13.788;2022-11-25T02:41:40;1.38;;;1.27;;
15408;SDS011;7803;48.130;13.788;2022-11-25T02:44:46;2.33;;;1.42;;
15408;SDS011;7803;48.130;13.788;2022-11-25T02:47:48;2.28;;;1.55;;
15408;SDS011;7803;48.130;13.788;2022-11-25T02:50:50;2.10;;;1.58;;
15408;SDS011;7803;48.130;13.788;2022-11-25T02:53:52;2.15;;;1.48;;
15408;SDS011;7803;48.130;13.788;2022-11-25T02:56:57;2.92;;;1.70;;
15408;SDS011;7803;48.130;13.788;2022-11-25T02:59:59;2.05;;;1.48;;
15408;SDS011;7803;48.130;13.788;2022-11-25T03:03:01;1.83;;;1.35;;
15408;SDS011;7803;48.130;13.788;2022-11-25T03:06:03;1.67;;;1.40;;
15408;SDS011;7803;48.130;13.788;2022-11-25T03:09:05;2.08;;;1.30;;
15408;SDS011;7803;48.130;13.788;2022-11-25T03:12:08;2.38;;;1.60;;
15408;SDS011;7803;48.130;13.788;2022-11-25T03:15:19;2.72;;;1.50;;
15408;SDS011;7803;48.130;13.788;2022-11-25T03:18:22;1.30;;;1.15;;
15408;SDS011;7803;48.130;13.788;2022-11-25T03:21:24;2.45;;;1.58;;
15408;SDS011;7803;48.130;13.788;2022-11-25T03:24:26;1.77;;;1.30;;
15408;SDS011;7803;48.130;13.788;2022-11-25T03:27:29;2.03;;;1.52;;
15408;SDS011;7803;48.130;13.788;2022-11-25T03:30:31;2.05;;;1.33;;
15408;SDS011;7803;48.130;13.788;2022-11-25T03:33:33;1.77;;;1.42;;
15408;SDS011;7803;48.130;13.788;2022-11-25T03:36:35;1.48;;;1.17;;
15408;SDS011;7803;48.130;13.788;2022-11-25T03:39:38;1.58;;;1.30;;
15408;SDS011;7803;48.130;13.788;2022-11-25T03:42:41;1.48;;;1.17;;
15408;SDS011;7803;48.130;13.788;2022-11-25T03:45:47;1.55;;;1.20;;
15408;SDS011;7803;48.130;13.788;2022-11-25T03:48:49;1.50;;;1.25;;
15408;SDS011;7803;48.130;13.788;2022-11-25T03:51:51;3.60;;;1.80;;
15408;SDS011;7803;48.130;13.788;2022-11-25T03:54:53;1.60;;;1.30;;
15408;SDS011;7803;48.130;13.788;2022-11-25T03:57:56;2.00;;;1.40;;
15408;SDS011;7803;48.130;13.788;2022-11-25T04:00:59;1.55;;;1.25;;
15408;SDS011;7803;48.130;13.788;2022-11-25T04:04:01;1.42;;;1.20;;
15408;SDS011;7803;48.130;13.788;2022-11-25T04:07:03;1.30;;;1.10;;
15408;SDS011;7803;48.130;13.788;2022-11-25T04:10:06;1.65;;;1.25;;
15408;SDS011;7803;48.130;13.788;2022-11-25T04:13:10;1.30;;;1.20;;
15408;SDS011;7803;48.130;13.788;2022-11-25T04:16:14;1.30;;;1.20;;
15408;SDS011;7803;48.130;13.788;2022-11-25T04:19:22;2.45;;;1.50;;
15408;SDS011;7803;48.130;13.788;2022-11-25T04:22:24;1.50;;;1.27;;
15408;SDS011;7803;48.130;13.788;2022-11-25T04:25:26;1.75;;;1.30;;
15408;SDS011;7803;48.130;13.788;2022-11-25T04:28:29;1.38;;;1.27;;
15408;SDS011;7803;48.130;13.788;2022-11-25T04:31:31;2.05;;;1.30;;
15408;SDS011;7803;48.130;13.788;2022-11-25T04:34:34;1.50;;;1.20;;
15408;SDS011;7803;48.130;13.788;2022-11-25T04:37:36;1.67;;;1.30;;
15408;SDS011;7803;48.130;13.788;2022-11-25T04:40:38;1.30;;;1.20;;
15408;SDS011;7803;48.130;13.788;2022-11-25T04:43:41;1.50;;;1.20;;
15408;SDS011;7803;48.130;13.788;2022-11-25T04:46:43;2.20;;;1.50;;
15408;SDS011;7803;48.130;13.788;2022-11-25T04:49:46;2.10;;;1.35;;
15408;SDS011;7803;48.130;13.788;2022-11-25T04:52:48;2.15;;;1.25;;
15408;SDS011;7803;48.130;13.788;2022-11-25T04:55:50;1.90;;;1.30;;
15408;SDS011;7803;48.130;13.788;2022-11-25T04:58:53;1.70;;;1.30;;
15408;SDS011;7803;48.130;13.788;2022-11-25T05:02:13;1.30;;;1.20;;
15408;SDS011;7803;48.130;13.788;2022-11-25T05:05:16;1.73;;;1.27;;
15408;SDS011;7803;48.130;13.788;2022-11-25T05:08:18;1.50;;;1.40;;
15408;SDS011;7803;48.130;13.788;2022-11-25T05:11:20;1.75;;;1.30;;
15408;SDS011;7803;48.130;13.788;2022-11-25T05:14:23;1.63;;;1.27;;
15408;SDS011;7803;48.130;13.788;2022-11-25T05:17:26;1.55;;;1.45;;
15408;SDS011;7803;48.130;13.788;2022-11-25T05:20:29;1.40;;;1.20;;
15408;SDS011;7803;48.130;13.788;2022-11-25T05:23:32;1.30;;;1.20;;
15408;SDS011;7803;48.130;13.788;2022-11-25T05:26:34;1.60;;;1.30;;
15408;SDS011;7803;48.130;13.788;2022-11-25T05:29:38;2.65;;;1.60;;
15408;SDS011;7803;48.130;13.788;2022-11-25T05:32:40;1.73;;;1.38;;
15408;SDS011;7803;48.130;13.788;2022-11-25T05:35:43;1.60;;;1.20;;
15408;SDS011;7803;48.130;13.788;2022-11-25T05:38:45;1.45;;;1.30;;
15408;SDS011;7803;48.130;13.788;2022-11-25T05:41:47;1.77;;;1.38;;
15408;SDS011;7803;48.130;13.788;2022-11-25T05:44:50;1.52;;;1.40;;
15408;SDS011;7803;48.130;13.788;2022-11-25T05:47:52;1.55;;;1.30;;
15408;SDS011;7803;48.130;13.788;2022-11-25T05:50:58;1.48;;;1.23;;
15408;SDS011;7803;48.130;13.788;2022-11-25T05:54:00;1.60;;;1.30;;
15408;SDS011;7803;48.130;13.788;2022-11-25T05:57:02;1.40;;;1.30;;
15408;SDS011;7803;48.130;13.788;2022-11-25T06:00:06;2.08;;;1.65;;
15408;SDS011;7803;48.130;13.788;2022-11-25T06:03:09;2.33;;;1.65;;
15408;SDS011;7803;48.130;13.788;2022-11-25T06:06:11;1.98;;;1.73;;
15408;SDS011;7803;48.130;13.788;2022-11-25T06:09:13;1.45;;;1.33;;
15408;SDS011;7803;48.130;13.788;2022-11-25T06:12:15;2.17;;;1.50;;
15408;SDS011;7803;48.130;13.788;2022-11-25T06:15:19;2.10;;;1.58;;
15408;SDS011;7803;48.130;13.788;2022-11-25T06:18:21;1.48;;;1.35;;
15408;SDS011;7803;48.130;13.788;2022-11-25T06:21:23;1.50;;;1.30;;
15408;SDS011;7803;48.130;13.788;2022-11-25T06:24:25;1.50;;;1.40;;
15408;SDS011;7803;48.130;13.788;2022-11-25T06:27:27;2.60;;;1.67;;
15408;SDS011;7803;48.130;13.788;2022-11-25T06:30:30;2.58;;;1.80;;
15408;SDS011;7803;48.130;13.788;2022-11-25T06:33:32;1.90;;;1.50;;
15408;SDS011;7803;48.130;13.788;2022-11-25T06:36:34;1.50;;;1.30;;
15408;SDS011;7803;48.130;13.788;2022-11-25T06:39:36;1.70;;;1.38;;
15408;SDS011;7803;48.130;13.788;2022-11-25T06:42:38;1.58;;;1.40;;
15408;SDS011;7803;48.130;13.788;2022-11-25T06:45:43;1.55;;;1.45;;
15408;SDS011;7803;48.130;13.788;2022-11-25T06:48:45;1.77;;;1.58;;
15408;SDS011;7803;48.130;13.788;2022-11-25T06:51:47;2.60;;;1.70;;
15408;SDS011;7803;48.130;13.788;2022-11-25T06:54:50;3.22;;;2.05;;
15408;SDS011;7803;48.130;13.788;2022-11-25T06:57:52;1.63;;;1.52;;
15408;SDS011;7803;48.130;13.788;2022-11-25T07:00:59;2.38;;;2.13;;
15408;SDS011;7803;48.130;13.788;2022-11-25T07:04:03;2.78;;;2.22;;
15408;SDS011;7803;48.130;13.788;2022-11-25T07:07:06;2.35;;;2.15;;
15408;SDS011;7803;48.130;13.788;2022-11-25T07:10:08;2.28;;;2.00;;
15408;SDS011;7803;48.130;13.788;2022-11-25T07:13:10;2.13;;;1.92;;
15408;SDS011;7803;48.130;13.788;2022-11-25T07:16:14;2.40;;;1.92;;
15408;SDS011;7803;48.130;13.788;2022-11-25T07:19:16;3.35;;;2.22;;
15408;SDS011;7803;48.130;13.788;2022-11-25T07:22:19;3.05;;;2.10;;
15408;SDS011;7803;48.130;13.788;2022-11-25T07:25:22;2.45;;;2.00;;
15408;SDS011;7803;48.130;13.788;2022-11-25T07:28:24;2.13;;;1.92;;
15408;SDS011;7803;48.130;13.788;2022-11-25T07:31:28;2.20;;;2.00;;
15408;SDS011;7803;48.130;13.788;2022-11-25T07:34:31;2.40;;;2.20;;
15408;SDS011;7803;48.130;13.788;2022-11-25T07:37:33;2.40;;;2.10;;
15408;SDS011;7803;48.130;13.788;2022-11-25T07:40:36;2.35;;;2.15;;
15408;SDS011;7803;48.130;13.788;2022-11-25T07:43:37;2.30;;;2.10;;
15408;SDS011;7803;48.130;13.788;2022-11-25T07:46:42;2.80;;;2.50;;
15408;SDS011;7803;48.130;13.788;2022-11-25T07:49:46;3.00;;;2.38;;
15408;SDS011;7803;48.130;13.788;2022-11-25T07:52:48;2.60;;;2.20;;
15408;SDS011;7803;48.130;13.788;2022-11-25T07:55:50;2.65;;;2.40;;
15408;SDS011;7803;48.130;13.788;2022-11-25T07:58:52;2.40;;;2.20;;
15408;SDS011;7803;48.130;13.788;2022-11-25T08:01:56;2.47;;;2.28;;
15408;SDS011;7803;48.130;13.788;2022-11-25T08:04:58;2.63;;;2.42;;
15408;SDS011;7803;48.130;13.788;2022-11-25T08:08:00;3.38;;;2.78;;
15408;SDS011;7803;48.130;13.788;2022-11-25T08:11:04;2.95;;;2.63;;
15408;SDS011;7803;48.130;13.788;2022-11-25T08:14:07;3.03;;;2.70;;
15408;SDS011;7803;48.130;13.788;2022-11-25T08:17:10;3.10;;;2.80;;
15408;SDS011;7803;48.130;13.788;2022-11-25T08:20:12;3.15;;;2.78;;
15408;SDS011;7803;48.130;13.788;2022-11-25T08:23:14;2.92;;;2.60;;
15408;SDS011;7803;48.130;13.788;2022-11-25T08:26:17;3.08;;;2.78;;
15408;SDS011;7803;48.130;13.788;2022-11-25T08:29:21;3.15;;;2.85;;
15408;SDS011;7803;48.130;13.788;2022-11-25T08:32:24;3.40;;;3.10;;
15408;SDS011;7803;48.130;13.788;2022-11-25T08:35:26;3.38;;;3.08;;
15408;SDS011;7803;48.130;13.788;2022-11-25T08:38:28;4.43;;;3.35;;
15408;SDS011;7803;48.130;13.788;2022-11-25T08:41:31;3.40;;;3.10;;
15408;SDS011;7803;48.130;13.788;2022-11-25T08:44:35;3.90;;;3.10;;
15408;SDS011;7803;48.130;13.788;2022-11-25T08:47:39;3.83;;;3.00;;
15408;SDS011;7803;48.130;13.788;2022-11-25T08:50:41;3.10;;;2.80;;
15408;SDS011;7803;48.130;13.788;2022-11-25T08:53:47;3.30;;;2.97;;
15408;SDS011;7803;48.130;13.788;2022-11-25T08:56:50;3.22;;;2.92;;
15408;SDS011;7803;48.130;13.788;2022-11-25T08:59:52;3.95;;;3.20;;
15408;SDS011;7803;48.130;13.788;2022-11-25T09:02:56;3.22;;;2.92;;
15408;SDS011;7803;48.130;13.788;2022-11-25T09:05:58;3.17;;;2.88;;
15408;SDS011;7803;48.130;13.788;2022-11-25T09:09:00;3.45;;;3.10;;
15408;SDS011;7803;48.130;13.788;2022-11-25T09:12:05;5.20;;;3.67;;
15408;SDS011;7803;48.130;13.788;2022-11-25T09:15:07;3.30;;;3.00;;
15408;SDS011;7803;48.130;13.788;2022-11-25T09:18:12;3.50;;;3.20;;
15408;SDS011;7803;48.130;13.788;2022-11-25T09:21:15;3.35;;;3.00;;
15408;SDS011;7803;48.130;13.788;2022-11-25T09:24:18;3.17;;;2.88;;
15408;SDS011;7803;48.130;13.788;2022-11-25T09:27:20;5.50;;;3.72;;
15408;SDS011;7803;48.130;13.788;2022-11-25T09:30:22;3.83;;;3.17;;
15408;SDS011;7803;48.130;13.788;2022-11-25T09:33:26;3.28;;;2.97;;
15408;SDS011;7803;48.130;13.788;2022-11-25T09:36:28;3.33;;;2.90;;
15408;SDS011;7803;48.130;13.788;2022-11-25T09:39:30;3.28;;;2.92;;
15408;SDS011;7803;48.130;13.788;2022-11-25T09:42:38;3.28;;;2.97;;
15408;SDS011;7803;48.130;13.788;2022-11-25T09:46:08;3.10;;;2.80;;
15408;SDS011;7803;48.130;13.788;2022-11-25T09:49:37;3.33;;;2.95;;
15408;SDS011;7803;48.130;13.788;2022-11-25T09:52:51;3.28;;;2.97;;
15408;SDS011;7803;48.130;13.788;2022-11-25T09:56:02;3.28;;;2.97;;
15408;SDS011;7803;48.130;13.788;2022-11-25T09:59:09;3.17;;;2.88;;
15408;SDS011;7803;48.130;13.788;2022-11-25T10:02:16;3.40;;;3.10;;
15408;SDS011;7803;48.130;13.788;2022-11-25T10:05:26;3.75;;;3.35;;
15408;SDS011;7803;48.130;13.788;2022-11-25T10:08:31;3.63;;;3.30;;
15408;SDS011;7803;48.130;13.788;2022-11-25T10:11:42;3.30;;;3.00;;
15408;SDS011;7803;48.130;13.788;2022-11-25T10:14:48;3.10;;;2.80;;
15408;SDS011;7803;48.130;13.788;2022-11-25T10:17:54;3.42;;;3.10;;
15408;SDS011;7803;48.130;13.788;2022-11-25T10:21:02;3.33;;;3.03;;
15408;SDS011;7803;48.130;13.788;2022-11-25T10:24:05;3.88;;;3.38;;
15408;SDS011;7803;48.130;13.788;2022-11-25T10:27:16;3.88;;;3.35;;
15408;SDS011;7803;48.130;13.788;2022-11-25T10:30:22;3.30;;;3.00;;
15408;SDS011;7803;48.130;13.788;2022-11-25T10:33:26;3.13;;;2.83;;
15408;SDS011;7803;48.130;13.788;2022-11-25T10:36:33;3.25;;;2.92;;
15408;SDS011;7803;48.130;13.788;2022-11-25T10:39:38;3.20;;;2.90;;
15408;SDS011;7803;48.130;13.788;2022-11-25T10:42:40;3.58;;;3.10;;
15408;SDS011;7803;48.130;13.788;2022-11-25T10:45:44;2.85;;;2.60;;
15408;SDS011;7803;48.130;13.788;2022-11-25T10:48:53;3.45;;;3.15;;
15408;SDS011;7803;48.130;13.788;2022-11-25T10:52:05;5.03;;;3.25;;
15408;SDS011;7803;48.130;13.788;2022-11-25T10:55:13;4.90;;;3.38;;
15408;SDS011;7803;48.130;13.788;2022-11-25T10:58:19;3.95;;;3.10;;
15408;SDS011;7803;48.130;13.788;2022-11-25T11:01:27;3.35;;;2.90;;
15408;SDS011;7803;48.130;13.788;2022-11-25T11:04:29;3.03;;;2.72;;
15408;SDS011;7803;48.130;13.788;2022-11-25T11:07:33;3.10;;;2.80;;
15408;SDS011;7803;48.130;13.788;2022-11-25T11:10:37;3.20;;;2.90;;
15408;SDS011;7803;48.130;13.788;2022-11-25T11:13:39;3.88;;;3.05;;
15408;SDS011;7803;48.130;13.788;2022-11-25T11:16:42;3.10;;;2.80;;
15408;SDS011;7803;48.130;13.788;2022-11-25T11:19:45;2.80;;;2.50;;
15408;SDS011;7803;48.130;13.788;2022-11-25T11:23:04;3.05;;;2.75;;
15408;SDS011;7803;48.130;13.788;2022-11-25T11:26:10;2.70;;;2.50;;
15408;SDS011;7803;48.130;13.788;2022-11-25T11:29:23;3.10;;;2.70;;
15408;SDS011;7803;48.130;13.788;2022-11-25T11:32:25;2.97;;;2.63;;
15408;SDS011;7803;48.130;13.788;2022-11-25T11:39:08;3.20;;;2.90;;
15408;SDS011;7803;48.130;13.788;2022-11-25T11:42:23;2.80;;;2.60;;
15408;SDS011;7803;48.130;13.788;2022-11-25T11:45:39;3.10;;;2.80;;
15408;SDS011;7803;48.130;13.788;2022-11-25T11:48:53;3.22;;;2.78;;
15408;SDS011;7803;48.130;13.788;2022-11-25T11:52:04;3.38;;;2.90;;
15408;SDS011;7803;48.130;13.788;2022-11-25T11:55:15;3.33;;;3.00;;
15408;SDS011;7803;48.130;13.788;2022-11-25T11:58:30;2.80;;;2.60;;
15408;SDS011;7803;48.130;13.788;2022-11-25T12:01:44;3.90;;;3.00;;
15408;SDS011;7803;48.130;13.788;2022-11-25T12:04:56;3.08;;;2.70;;
15408;SDS011;7803;48.130;13.788;2022-11-25T12:08:05;3.40;;;2.70;;
15408;SDS011;7803;48.130;13.788;2022-11-25T12:11:15;2.70;;;2.50;;
15408;SDS011;7803;48.130;13.788;2022-11-25T12:14:24;2.70;;;2.50;;
15408;SDS011;7803;48.130;13.788;2022-11-25T12:17:33;2.58;;;2.38;;
15408;SDS011;7803;48.130;13.788;2022-11-25T12:20:45;3.17;;;2.60;;
15408;SDS011;7803;48.130;13.788;2022-11-25T12:23:54;3.10;;;2.78;;
15408;SDS011;7803;48.130;13.788;2022-11-25T12:27:05;2.90;;;2.67;;
15408;SDS011;7803;48.130;13.788;2022-11-25T12:30:12;2.80;;;2.60;;
15408;SDS011;7803;48.130;13.788;2022-11-25T12:33:18;2.55;;;2.33;;
15408;SDS011;7803;48.130;13.788;2022-11-25T12:36:25;3.20;;;2.80;;
15408;SDS011;7803;48.130;13.788;2022-11-25T12:39:34;2.78;;;2.50;;
15408;SDS011;7803;48.130;13.788;2022-11-25T12:42:42;2.97;;;2.70;;
15408;SDS011;7803;48.130;13.788;2022-11-25T12:45:46;2.53;;;2.33;;
15408;SDS011;7803;48.130;13.788;2022-11-25T12:48:59;2.90;;;2.70;;
15408;SDS011;7803;48.130;13.788;2022-11-25T12:52:10;6.15;;;3.55;;
15408;SDS011;7803;48.130;13.788;2022-11-25T12:55:25;2.67;;;2.47;;
15408;SDS011;7803;48.130;13.788;2022-11-25T12:58:39;2.78;;;2.50;;
15408;SDS011;7803;48.130;13.788;2022-11-25T13:01:52;2.88;;;2.67;;
15408;SDS011;7803;48.130;13.788;2022-11-25T13:05:12;3.10;;;2.55;;
15408;SDS011;7803;48.130;13.788;2022-11-25T13:08:29;3.40;;;2.53;;
15408;SDS011;7803;48.130;13.788;2022-11-25T13:11:54;3.15;;;2.60;;
15408;SDS011;7803;48.130;13.788;2022-11-25T13:15:22;3.38;;;2.75;;
15408;SDS011;7803;48.130;13.788;2022-11-25T13:18:28;3.75;;;2.95;;
15408;SDS011;7803;48.130;13.788;2022-11-25T13:21:33;2.85;;;2.65;;
15408;SDS011;7803;48.130;13.788;2022-11-25T13:24:37;2.80;;;2.60;;
15408;SDS011;7803;48.130;13.788;2022-11-25T13:27:55;2.63;;;2.42;;
15408;SDS011;7803;48.130;13.788;2022-11-25T13:34:32;2.70;;;2.50;;
15408;SDS011;7803;48.130;13.788;2022-11-25T13:37:36;3.00;;;2.70;;
15408;SDS011;7803;48.130;13.788;2022-11-25T13:40:39;2.63;;;2.42;;
15408;SDS011;7803;48.130;13.788;2022-11-25T13:43:49;2.63;;;2.40;;
15408;SDS011;7803;48.130;13.788;2022-11-25T13:46:57;2.70;;;2.47;;
15408;SDS011;7803;48.130;13.788;2022-11-25T13:50:03;2.60;;;2.40;;
15408;SDS011;7803;48.130;13.788;2022-11-25T13:53:07;2.35;;;2.15;;
15408;SDS011;7803;48.130;13.788;2022-11-25T13:56:25;3.13;;;2.65;;
15408;SDS011;7803;48.130;13.788;2022-11-25T13:59:47;2.60;;;2.40;;
15408;SDS011;7803;48.130;13.788;2022-11-25T14:02:52;2.75;;;2.55;;
15408;SDS011;7803;48.130;13.788;2022-11-25T14:05:57;2.67;;;2.47;;
15408;SDS011;7803;48.130;13.788;2022-11-25T14:09:08;2.75;;;2.55;;
15408;SDS011;7803;48.130;13.788;2022-11-25T14:12:26;2.88;;;2.40;;
15408;SDS011;7803;48.130;13.788;2022-11-25T14:15:46;2.72;;;2.40;;
15408;SDS011;7803;48.130;13.788;2022-11-25T14:19:04;2.78;;;2.47;;
15408;SDS011;7803;48.130;13.788;2022-11-25T14:22:39;4.30;;;2.80;;
15408;SDS011;7803;48.130;13.788;2022-11-25T14:26:00;2.50;;;2.30;;
15408;SDS011;7803;48.130;13.788;2022-11-25T14:29:11;2.80;;;2.55;;
15408;SDS011;7803;48.130;13.788;2022-11-25T14:32:18;2.58;;;2.35;;
15408;SDS011;7803;48.130;13.788;2022-11-25T14:35:26;3.65;;;3.03;;
15408;SDS011;7803;48.130;13.788;2022-11-25T14:38:35;3.58;;;2.70;;
15408;SDS011;7803;48.130;13.788;2022-11-25T14:41:41;3.15;;;2.60;;
15408;SDS011;7803;48.130;13.788;2022-11-25T14:44:50;2.67;;;2.47;;
15408;SDS011;7803;48.130;13.788;2022-11-25T14:47:54;2.50;;;2.22;;
15408;SDS011;7803;48.130;13.788;2022-11-25T14:50:59;2.58;;;2.38;;
15408;SDS011;7803;48.130;13.788;2022-11-25T14:54:05;2.50;;;2.30;;
15408;SDS011;7803;48.130;13.788;2022-11-25T14:57:08;2.60;;;2.40;;
15408;SDS011;7803;48.130;13.788;2022-11-25T15:00:11;2.63;;;2.42;;
15408;SDS011;7803;48.130;13.788;2022-11-25T15:03:16;2.95;;;2.55;;
15408;SDS011;7803;48.130;13.788;2022-11-25T15:06:21;3.53;;;2.80;;
15408;SDS011;7803;48.130;13.788;2022-11-25T15:09:29;2.70;;;2.45;;
15408;SDS011;7803;48.130;13.788;2022-11-25T15:12:32;2.38;;;2.17;;
15408;SDS011;7803;48.130;13.788;2022-11-25T15:15:34;2.58;;;2.38;;
15408;SDS011;7803;48.130;13.788;2022-11-25T15:18:37;2.40;;;2.20;;
15408;SDS011;7803;48.130;13.788;2022-11-25T15:21:45;2.55;;;2.35;;
15408;SDS011;7803;48.130;13.788;2022-11-25T15:24:53;2.55;;;2.30;;
15408;SDS011;7803;48.130;13.788;2022-11-25T15:28:13;2.65;;;2.45;;
15408;SDS011;7803;48.130;13.788;2022-11-25T15:31:17;2.58;;;2.38;;
15408;SDS011;7803;48.130;13.788;2022-11-25T15:34:21;2.58;;;2.38;;
15408;SDS011;7803;48.130;13.788;2022-11-25T15:37:25;2.60;;;2.40;;
15408;SDS011;7803;48.130;13.788;2022-11-25T15:40:29;2.80;;;2.53;;
15408;SDS011;7803;48.130;13.788;2022-11-25T15:43:32;3.45;;;2.85;;
15408;SDS011;7803;48.130;13.788;2022-11-25T15:46:38;3.67;;;2.88;;
15408;SDS011;7803;48.130;13.788;2022-11-25T15:49:41;2.42;;;2.22;;
15408;SDS011;7803;48.130;13.788;2022-11-25T15:52:51;2.53;;;2.33;;
15408;SDS011;7803;48.130;13.788;2022-11-25T15:55:57;2.58;;;2.38;;
15408;SDS011;7803;48.130;13.788;2022-11-25T15:59:01;2.60;;;2.40;;
15408;SDS011;7803;48.130;13.788;2022-11-25T16:02:25;2.42;;;2.22;;
15408;SDS011;7803;48.130;13.788;2022-11-25T16:05:50;2.60;;;2.40;;
15408;SDS011;7803;48.130;13.788;2022-11-25T16:08:55;2.83;;;2.50;;
15408;SDS011;7803;48.130;13.788;2022-11-25T16:12:05;3.85;;;3.03;;
15408;SDS011;7803;48.130;13.788;2022-11-25T16:15:14;3.08;;;2.63;;
15408;SDS011;7803;48.130;13.788;2022-11-25T16:18:17;2.47;;;2.28;;
15408;SDS011;7803;48.130;13.788;2022-11-25T16:21:23;2.55;;;2.35;;
15408;SDS011;7803;48.130;13.788;2022-11-25T16:24:32;2.75;;;2.53;;
15408;SDS011;7803;48.130;13.788;2022-11-25T16:27:40;2.92;;;2.40;;
15408;SDS011;7803;48.130;13.788;2022-11-25T16:30:43;2.75;;;2.53;;
15408;SDS011;7803;48.130;13.788;2022-11-25T16:33:45;4.97;;;3.20;;
15408;SDS011;7803;48.130;13.788;2022-11-25T16:36:47;2.70;;;2.50;;
15408;SDS011;7803;48.130;13.788;2022-11-25T16:39:50;2.60;;;2.40;;
15408;SDS011;7803;48.130;13.788;2022-11-25T16:42:53;2.53;;;2.33;;
15408;SDS011;7803;48.130;13.788;2022-11-25T16:45:55;2.40;;;2.20;;
15408;SDS011;7803;48.130;13.788;2022-11-25T16:48:58;2.85;;;2.60;;
15408;SDS011;7803;48.130;13.788;2022-11-25T16:52:04;3.03;;;2.65;;
15408;SDS011;7803;48.130;13.788;2022-11-25T16:55:08;3.28;;;2.60;;
15408;SDS011;7803;48.130;13.788;2022-11-25T16:58:13;3.47;;;2.60;;
15408;SDS011;7803;48.130;13.788;2022-11-25T17:01:18;2.63;;;2.42;;
15408;SDS011;7803;48.130;13.788;2022-11-25T17:04:24;3.55;;;2.55;;
15408;SDS011;7803;48.130;13.788;2022-11-25T17:07:27;2.70;;;2.50;;
15408;SDS011;7803;48.130;13.788;2022-11-25T17:10:31;3.40;;;2.72;;
15408;SDS011;7803;48.130;13.788;2022-11-25T17:13:33;3.55;;;2.78;;
15408;SDS011;7803;48.130;13.788;2022-11-25T17:16:37;3.17;;;2.53;;
15408;SDS011;7803;48.130;13.788;2022-11-25T17:19:42;2.65;;;2.45;;
15408;SDS011;7803;48.130;13.788;2022-11-25T17:22:44;2.75;;;2.35;;
15408;SDS011;7803;48.130;13.788;2022-11-25T17:25:48;2.80;;;2.40;;
15408;SDS011;7803;48.130;13.788;2022-11-25T17:28:52;3.97;;;2.75;;
15408;SDS011;7803;48.130;13.788;2022-11-25T17:31:57;2.90;;;2.70;;
15408;SDS011;7803;48.130;13.788;2022-11-25T17:35:01;2.80;;;2.60;;
15408;SDS011;7803;48.130;13.788;2022-11-25T17:38:08;3.33;;;2.75;;
15408;SDS011;7803;48.130;13.788;2022-11-25T17:41:15;3.15;;;2.85;;
15408;SDS011;7803;48.130;13.788;2022-11-25T17:44:21;2.90;;;2.65;;
15408;SDS011;7803;48.130;13.788;2022-11-25T17:47:25;3.40;;;2.85;;
15408;SDS011;7803;48.130;13.788;2022-11-25T17:50:28;3.45;;;2.60;;
15408;SDS011;7803;48.130;13.788;2022-11-25T17:53:30;4.47;;;3.13;;
15408;SDS011;7803;48.130;13.788;2022-11-25T17:56:38;3.53;;;2.95;;
15408;SDS011;7803;48.130;13.788;2022-11-25T17:59:42;3.25;;;2.70;;
15408;SDS011;7803;48.130;13.788;2022-11-25T18:02:46;3.30;;;3.00;;
15408;SDS011;7803;48.130;13.788;2022-11-25T18:05:48;2.70;;;2.50;;
15408;SDS011;7803;48.130;13.788;2022-11-25T18:08:52;3.03;;;2.72;;
15408;SDS011;7803;48.130;13.788;2022-11-25T18:11:56;2.80;;;2.58;;
15408;SDS011;7803;48.130;13.788;2022-11-25T18:15:05;3.20;;;2.90;;
15408;SDS011;7803;48.130;13.788;2022-11-25T18:18:15;3.35;;;2.78;;
15408;SDS011;7803;48.130;13.788;2022-11-25T18:21:21;5.00;;;2.90;;
15408;SDS011;7803;48.130;13.788;2022-11-25T18:24:27;3.10;;;2.90;;
15408;SDS011;7803;48.130;13.788;2022-11-25T18:27:30;3.10;;;2.80;;
15408;SDS011;7803;48.130;13.788;2022-11-25T18:30:34;3.85;;;2.97;;
15408;SDS011;7803;48.130;13.788;2022-11-25T18:33:39;4.38;;;3.05;;
15408;SDS011;7803;48.130;13.788;2022-11-25T18:36:42;4.03;;;2.90;;
15408;SDS011;7803;48.130;13.788;2022-11-25T18:39:46;3.22;;;2.92;;
15408;SDS011;7803;48.130;13.788;2022-11-25T18:42:51;3.15;;;2.85;;
15408;SDS011;7803;48.130;13.788;2022-11-25T18:45:55;2.90;;;2.70;;